sensor_id;sensor_type;location;lat;lon;timestamp;P1;durP1;ratioP1;P2;durP2;ratioP2
60722;SDS011;46574;52.818;6.516;2023-09-30T00:02:06;9.20;;;3.83;;
60722;SDS011;46574;52.818;6.516;2023-09-30T00:04:32;9.23;;;3.95;;
60722;SDS011;46574;52.818;6.516;2023-09-30T00:06:58;10.73;;;4.13;;
60722;SDS011;46574;52.818;6.516;2023-09-30T00:09:24;8.68;;;4.68;;
60722;SDS011;46574;52.818;6.516;2023-09-30T00:11:50;8.75;;;4.57;;
60722;SDS011;46574;52.818;6.516;2023-09-30T00:14:16;10.90;;;4.18;;
60722;SDS011;46574;52.818;6.516;2023-09-30T00:16:42;10.10;;;4.15;;
60722;SDS011;46574;52.818;6.516;2023-09-30T00:19:08;11.57;;;4.18;;
60722;SDS011;46574;52.818;6.516;2023-09-30T00:21:34;7.18;;;3.78;;
60722;SDS011;46574;52.818;6.516;2023-09-30T00:24:00;11.50;;;4.05;;
60722;SDS011;46574;52.818;6.516;2023-09-30T00:26:26;12.05;;;4.53;;
60722;SDS011;46574;52.818;6.516;2023-09-30T00:28:51;9.60;;;4.07;;
60722;SDS011;46574;52.818;6.516;2023-09-30T00:31:17;10.02;;;4.93;;
60722;SDS011;46574;52.818;6.516;2023-09-30T00:33:43;8.70;;;3.83;;
60722;SDS011;46574;52.818;6.516;2023-09-30T00:36:09;9.73;;;4.30;;
60722;SDS011;46574;52.818;6.516;2023-09-30T00:38:35;13.73;;;4.53;;
60722;SDS011;46574;52.818;6.516;2023-09-30T00:41:01;10.60;;;4.35;;
60722;SDS011;46574;52.818;6.516;2023-09-30T00:43:27;9.45;;;4.20;;
60722;SDS011;46574;52.818;6.516;2023-09-30T00:46:14;10.07;;;4.43;;
60722;SDS011;46574;52.818;6.516;2023-09-30T00:48:55;10.25;;;4.18;;
60722;SDS011;46574;52.818;6.516;2023-09-30T00:51:23;13.57;;;5.47;;
60722;SDS011;46574;52.818;6.516;2023-09-30T00:53:50;10.15;;;4.50;;
60722;SDS011;46574;52.818;6.516;2023-09-30T00:56:18;9.18;;;3.83;;
60722;SDS011;46574;52.818;6.516;2023-09-30T00:58:48;10.82;;;4.45;;
60722;SDS011;46574;52.818;6.516;2023-09-30T01:01:16;9.60;;;4.70;;
60722;SDS011;46574;52.818;6.516;2023-09-30T01:03:43;9.55;;;4.32;;
60722;SDS011;46574;52.818;6.516;2023-09-30T01:06:10;9.93;;;4.50;;
60722;SDS011;46574;52.818;6.516;2023-09-30T01:08:36;9.30;;;4.45;;
60722;SDS011;46574;52.818;6.516;2023-09-30T01:11:01;7.88;;;4.45;;
60722;SDS011;46574;52.818;6.516;2023-09-30T01:13:33;13.75;;;4.35;;
60722;SDS011;46574;52.818;6.516;2023-09-30T01:16:06;9.32;;;4.80;;
60722;SDS011;46574;52.818;6.516;2023-09-30T01:18:35;11.52;;;4.38;;
60722;SDS011;46574;52.818;6.516;2023-09-30T01:21:02;11.70;;;4.50;;
60722;SDS011;46574;52.818;6.516;2023-09-30T01:23:31;11.20;;;4.90;;
60722;SDS011;46574;52.818;6.516;2023-09-30T01:25:57;12.45;;;4.97;;
60722;SDS011;46574;52.818;6.516;2023-09-30T01:28:28;8.63;;;4.57;;
60722;SDS011;46574;52.818;6.516;2023-09-30T01:30:54;11.52;;;4.72;;
60722;SDS011;46574;52.818;6.516;2023-09-30T01:33:19;11.07;;;4.82;;
60722;SDS011;46574;52.818;6.516;2023-09-30T01:35:45;9.75;;;4.18;;
60722;SDS011;46574;52.818;6.516;2023-09-30T01:38:11;8.13;;;4.50;;
60722;SDS011;46574;52.818;6.516;2023-09-30T01:40:37;10.43;;;4.68;;
60722;SDS011;46574;52.818;6.516;2023-09-30T01:43:03;7.18;;;4.10;;
60722;SDS011;46574;52.818;6.516;2023-09-30T01:45:28;7.57;;;3.92;;
60722;SDS011;46574;52.818;6.516;2023-09-30T01:47:54;11.18;;;4.90;;
60722;SDS011;46574;52.818;6.516;2023-09-30T01:50:20;13.57;;;5.25;;
60722;SDS011;46574;52.818;6.516;2023-09-30T01:52:45;10.25;;;4.55;;
60722;SDS011;46574;52.818;6.516;2023-09-30T01:55:11;8.43;;;4.55;;
60722;SDS011;46574;52.818;6.516;2023-09-30T01:57:37;9.55;;;4.07;;
60722;SDS011;46574;52.818;6.516;2023-09-30T02:00:03;10.82;;;4.85;;
60722;SDS011;46574;52.818;6.516;2023-09-30T02:02:30;13.60;;;5.35;;
60722;SDS011;46574;52.818;6.516;2023-09-30T02:04:56;11.75;;;4.68;;
60722;SDS011;46574;52.818;6.516;2023-09-30T02:07:22;10.45;;;4.68;;
60722;SDS011;46574;52.818;6.516;2023-09-30T02:09:48;9.30;;;4.75;;
60722;SDS011;46574;52.818;6.516;2023-09-30T02:12:14;8.50;;;4.65;;
60722;SDS011;46574;52.818;6.516;2023-09-30T02:14:39;13.10;;;4.88;;
60722;SDS011;46574;52.818;6.516;2023-09-30T02:17:05;11.43;;;4.90;;
60722;SDS011;46574;52.818;6.516;2023-09-30T02:19:31;11.07;;;4.72;;
60722;SDS011;46574;52.818;6.516;2023-09-30T02:21:59;11.48;;;4.57;;
60722;SDS011;46574;52.818;6.516;2023-09-30T02:24:25;12.25;;;4.63;;
60722;SDS011;46574;52.818;6.516;2023-09-30T02:26:50;11.27;;;5.55;;
60722;SDS011;46574;52.818;6.516;2023-09-30T02:29:16;8.00;;;4.20;;
60722;SDS011;46574;52.818;6.516;2023-09-30T02:31:42;11.35;;;4.95;;
60722;SDS011;46574;52.818;6.516;2023-09-30T02:34:07;9.68;;;4.40;;
60722;SDS011;46574;52.818;6.516;2023-09-30T02:36:33;9.90;;;5.53;;
60722;SDS011;46574;52.818;6.516;2023-09-30T02:39:08;8.82;;;4.63;;
60722;SDS011;46574;52.818;6.516;2023-09-30T02:41:34;10.18;;;4.50;;
60722;SDS011;46574;52.818;6.516;2023-09-30T02:44:01;10.77;;;5.47;;
60722;SDS011;46574;52.818;6.516;2023-09-30T02:46:26;9.02;;;4.72;;
60722;SDS011;46574;52.818;6.516;2023-09-30T02:48:54;9.63;;;4.32;;
60722;SDS011;46574;52.818;6.516;2023-09-30T02:51:20;9.10;;;4.38;;
60722;SDS011;46574;52.818;6.516;2023-09-30T02:53:46;12.88;;;5.10;;
60722;SDS011;46574;52.818;6.516;2023-09-30T02:56:13;10.77;;;5.20;;
60722;SDS011;46574;52.818;6.516;2023-09-30T02:58:39;9.68;;;4.90;;
60722;SDS011;46574;52.818;6.516;2023-09-30T03:01:05;8.43;;;5.13;;
60722;SDS011;46574;52.818;6.516;2023-09-30T03:03:32;7.30;;;4.60;;
60722;SDS011;46574;52.818;6.516;2023-09-30T03:05:58;9.30;;;5.53;;
60722;SDS011;46574;52.818;6.516;2023-09-30T03:08:25;12.43;;;5.10;;
60722;SDS011;46574;52.818;6.516;2023-09-30T03:10:51;10.38;;;4.90;;
60722;SDS011;46574;52.818;6.516;2023-09-30T03:13:18;9.25;;;4.50;;
60722;SDS011;46574;52.818;6.516;2023-09-30T03:15:46;10.60;;;4.65;;
60722;SDS011;46574;52.818;6.516;2023-09-30T03:18:15;11.23;;;5.45;;
60722;SDS011;46574;52.818;6.516;2023-09-30T03:20:42;7.93;;;4.35;;
60722;SDS011;46574;52.818;6.516;2023-09-30T03:23:08;8.23;;;4.53;;
60722;SDS011;46574;52.818;6.516;2023-09-30T03:25:35;11.90;;;5.32;;
60722;SDS011;46574;52.818;6.516;2023-09-30T03:28:01;10.98;;;4.85;;
60722;SDS011;46574;52.818;6.516;2023-09-30T03:30:27;9.80;;;4.97;;
60722;SDS011;46574;52.818;6.516;2023-09-30T03:32:52;10.68;;;5.10;;
60722;SDS011;46574;52.818;6.516;2023-09-30T03:35:18;9.80;;;5.10;;
60722;SDS011;46574;52.818;6.516;2023-09-30T03:37:44;11.70;;;4.70;;
60722;SDS011;46574;52.818;6.516;2023-09-30T03:40:10;10.68;;;5.40;;
60722;SDS011;46574;52.818;6.516;2023-09-30T03:42:40;9.82;;;4.90;;
60722;SDS011;46574;52.818;6.516;2023-09-30T03:45:09;10.27;;;5.47;;
60722;SDS011;46574;52.818;6.516;2023-09-30T03:47:36;12.77;;;5.40;;
60722;SDS011;46574;52.818;6.516;2023-09-30T03:50:03;9.18;;;4.82;;
60722;SDS011;46574;52.818;6.516;2023-09-30T03:52:30;10.95;;;5.70;;
60722;SDS011;46574;52.818;6.516;2023-09-30T03:55:02;12.02;;;5.40;;
60722;SDS011;46574;52.818;6.516;2023-09-30T03:57:33;12.13;;;5.53;;
60722;SDS011;46574;52.818;6.516;2023-09-30T03:59:59;11.43;;;5.88;;
60722;SDS011;46574;52.818;6.516;2023-09-30T04:02:26;8.43;;;5.30;;
60722;SDS011;46574;52.818;6.516;2023-09-30T04:04:52;12.93;;;5.88;;
60722;SDS011;46574;52.818;6.516;2023-09-30T04:07:20;10.10;;;5.05;;
60722;SDS011;46574;52.818;6.516;2023-09-30T04:09:46;8.45;;;5.28;;
60722;SDS011;46574;52.818;6.516;2023-09-30T04:12:12;9.93;;;5.30;;
60722;SDS011;46574;52.818;6.516;2023-09-30T04:14:38;12.30;;;5.80;;
60722;SDS011;46574;52.818;6.516;2023-09-30T04:17:04;9.32;;;5.07;;
60722;SDS011;46574;52.818;6.516;2023-09-30T04:19:30;9.27;;;4.82;;
60722;SDS011;46574;52.818;6.516;2023-09-30T04:21:55;10.10;;;5.45;;
60722;SDS011;46574;52.818;6.516;2023-09-30T04:24:21;11.30;;;5.80;;
60722;SDS011;46574;52.818;6.516;2023-09-30T04:26:47;12.15;;;5.22;;
60722;SDS011;46574;52.818;6.516;2023-09-30T04:29:15;9.57;;;5.80;;
60722;SDS011;46574;52.818;6.516;2023-09-30T04:31:41;13.80;;;5.88;;
60722;SDS011;46574;52.818;6.516;2023-09-30T04:34:07;11.77;;;5.68;;
60722;SDS011;46574;52.818;6.516;2023-09-30T04:36:32;12.30;;;6.15;;
60722;SDS011;46574;52.818;6.516;2023-09-30T04:39:01;14.10;;;6.38;;
60722;SDS011;46574;52.818;6.516;2023-09-30T04:41:28;12.10;;;5.88;;
60722;SDS011;46574;52.818;6.516;2023-09-30T04:43:53;12.15;;;6.80;;
60722;SDS011;46574;52.818;6.516;2023-09-30T04:46:19;9.63;;;5.55;;
60722;SDS011;46574;52.818;6.516;2023-09-30T04:48:49;11.40;;;5.63;;
60722;SDS011;46574;52.818;6.516;2023-09-30T04:51:17;11.93;;;6.22;;
60722;SDS011;46574;52.818;6.516;2023-09-30T04:53:44;10.75;;;6.15;;
60722;SDS011;46574;52.818;6.516;2023-09-30T04:56:12;10.73;;;5.72;;
60722;SDS011;46574;52.818;6.516;2023-09-30T04:58:38;8.88;;;6.22;;
60722;SDS011;46574;52.818;6.516;2023-09-30T05:01:03;12.55;;;6.82;;
60722;SDS011;46574;52.818;6.516;2023-09-30T05:03:29;9.00;;;6.80;;
60722;SDS011;46574;52.818;6.516;2023-09-30T05:05:55;11.70;;;6.55;;
60722;SDS011;46574;52.818;6.516;2023-09-30T05:08:24;11.55;;;6.88;;
60722;SDS011;46574;52.818;6.516;2023-09-30T05:10:51;8.70;;;5.90;;
60722;SDS011;46574;52.818;6.516;2023-09-30T05:13:20;11.23;;;6.47;;
60722;SDS011;46574;52.818;6.516;2023-09-30T05:15:46;9.60;;;6.03;;
60722;SDS011;46574;52.818;6.516;2023-09-30T05:18:11;11.10;;;6.00;;
60722;SDS011;46574;52.818;6.516;2023-09-30T05:20:37;9.25;;;5.88;;
60722;SDS011;46574;52.818;6.516;2023-09-30T05:23:04;9.50;;;6.25;;
60722;SDS011;46574;52.818;6.516;2023-09-30T05:25:32;7.20;;;5.60;;
60722;SDS011;46574;52.818;6.516;2023-09-30T05:27:57;10.45;;;6.35;;
60722;SDS011;46574;52.818;6.516;2023-09-30T05:30:23;10.90;;;7.70;;
60722;SDS011;46574;52.818;6.516;2023-09-30T05:32:50;7.13;;;5.70;;
60722;SDS011;46574;52.818;6.516;2023-09-30T05:35:17;9.05;;;6.35;;
60722;SDS011;46574;52.818;6.516;2023-09-30T05:37:43;9.50;;;6.60;;
60722;SDS011;46574;52.818;6.516;2023-09-30T05:42:58;9.30;;;5.75;;
60722;SDS011;46574;52.818;6.516;2023-09-30T05:47:51;11.43;;;6.85;;
60722;SDS011;46574;52.818;6.516;2023-09-30T05:50:18;9.82;;;7.03;;
60722;SDS011;46574;52.818;6.516;2023-09-30T05:52:49;12.82;;;7.68;;
60722;SDS011;46574;52.818;6.516;2023-09-30T05:55:16;8.95;;;6.22;;
60722;SDS011;46574;52.818;6.516;2023-09-30T05:57:45;14.57;;;8.52;;
60722;SDS011;46574;52.818;6.516;2023-09-30T06:00:19;22.25;;;14.05;;
60722;SDS011;46574;52.818;6.516;2023-09-30T06:02:49;19.90;;;13.20;;
60722;SDS011;46574;52.818;6.516;2023-09-30T06:05:17;17.52;;;11.73;;
60722;SDS011;46574;52.818;6.516;2023-09-30T06:07:51;14.25;;;9.48;;
60722;SDS011;46574;52.818;6.516;2023-09-30T06:10:17;13.75;;;8.52;;
60722;SDS011;46574;52.818;6.516;2023-09-30T06:12:46;13.85;;;8.50;;
60722;SDS011;46574;52.818;6.516;2023-09-30T06:15:15;13.35;;;8.70;;
60722;SDS011;46574;52.818;6.516;2023-09-30T06:17:46;12.90;;;7.80;;
60722;SDS011;46574;52.818;6.516;2023-09-30T06:20:14;13.48;;;8.13;;
60722;SDS011;46574;52.818;6.516;2023-09-30T06:22:46;11.60;;;8.05;;
60722;SDS011;46574;52.818;6.516;2023-09-30T06:25:14;14.55;;;8.70;;
60722;SDS011;46574;52.818;6.516;2023-09-30T06:27:47;11.70;;;8.18;;
60722;SDS011;46574;52.818;6.516;2023-09-30T06:30:14;14.07;;;8.73;;
60722;SDS011;46574;52.818;6.516;2023-09-30T06:32:43;13.65;;;8.07;;
60722;SDS011;46574;52.818;6.516;2023-09-30T06:35:10;12.40;;;7.25;;
60722;SDS011;46574;52.818;6.516;2023-09-30T06:37:39;13.15;;;8.35;;
60722;SDS011;46574;52.818;6.516;2023-09-30T06:40:06;16.05;;;8.70;;
60722;SDS011;46574;52.818;6.516;2023-09-30T06:42:33;13.88;;;8.13;;
60722;SDS011;46574;52.818;6.516;2023-09-30T06:45:05;13.48;;;8.55;;
60722;SDS011;46574;52.818;6.516;2023-09-30T06:47:34;12.27;;;9.07;;
60722;SDS011;46574;52.818;6.516;2023-09-30T06:50:04;10.48;;;8.07;;
60722;SDS011;46574;52.818;6.516;2023-09-30T06:52:34;12.98;;;9.27;;
60722;SDS011;46574;52.818;6.516;2023-09-30T06:55:01;12.68;;;8.50;;
60722;SDS011;46574;52.818;6.516;2023-09-30T06:59:56;16.58;;;10.93;;
60722;SDS011;46574;52.818;6.516;2023-09-30T07:02:22;14.73;;;9.35;;
60722;SDS011;46574;52.818;6.516;2023-09-30T07:04:47;11.90;;;9.30;;
60722;SDS011;46574;52.818;6.516;2023-09-30T07:07:13;14.30;;;10.02;;
60722;SDS011;46574;52.818;6.516;2023-09-30T07:09:40;15.20;;;10.75;;
60722;SDS011;46574;52.818;6.516;2023-09-30T07:12:07;18.40;;;11.65;;
60722;SDS011;46574;52.818;6.516;2023-09-30T07:14:33;15.68;;;9.65;;
60722;SDS011;46574;52.818;6.516;2023-09-30T07:16:59;12.20;;;8.93;;
60722;SDS011;46574;52.818;6.516;2023-09-30T07:19:24;10.75;;;8.75;;
60722;SDS011;46574;52.818;6.516;2023-09-30T07:21:50;12.93;;;9.70;;
60722;SDS011;46574;52.818;6.516;2023-09-30T07:24:16;18.67;;;11.15;;
60722;SDS011;46574;52.818;6.516;2023-09-30T07:26:41;13.43;;;9.35;;
60722;SDS011;46574;52.818;6.516;2023-09-30T07:29:08;11.27;;;8.73;;
60722;SDS011;46574;52.818;6.516;2023-09-30T07:31:35;13.25;;;9.38;;
60722;SDS011;46574;52.818;6.516;2023-09-30T07:34:01;11.77;;;8.63;;
60722;SDS011;46574;52.818;6.516;2023-09-30T07:36:27;10.70;;;7.47;;
60722;SDS011;46574;52.818;6.516;2023-09-30T07:38:53;10.95;;;8.38;;
60722;SDS011;46574;52.818;6.516;2023-09-30T07:41:19;13.30;;;9.23;;
60722;SDS011;46574;52.818;6.516;2023-09-30T07:43:44;13.25;;;8.40;;
60722;SDS011;46574;52.818;6.516;2023-09-30T07:46:10;16.38;;;11.55;;
60722;SDS011;46574;52.818;6.516;2023-09-30T07:48:36;12.73;;;10.15;;
60722;SDS011;46574;52.818;6.516;2023-09-30T07:51:01;14.75;;;10.38;;
60722;SDS011;46574;52.818;6.516;2023-09-30T07:53:28;12.18;;;9.30;;
60722;SDS011;46574;52.818;6.516;2023-09-30T07:55:54;13.48;;;10.43;;
60722;SDS011;46574;52.818;6.516;2023-09-30T07:58:20;12.55;;;9.82;;
60722;SDS011;46574;52.818;6.516;2023-09-30T08:00:45;17.60;;;11.55;;
60722;SDS011;46574;52.818;6.516;2023-09-30T08:03:11;18.88;;;11.75;;
60722;SDS011;46574;52.818;6.516;2023-09-30T08:05:37;14.30;;;10.95;;
60722;SDS011;46574;52.818;6.516;2023-09-30T08:08:03;14.73;;;10.43;;
60722;SDS011;46574;52.818;6.516;2023-09-30T08:10:31;12.70;;;9.07;;
60722;SDS011;46574;52.818;6.516;2023-09-30T08:12:57;15.13;;;9.45;;
60722;SDS011;46574;52.818;6.516;2023-09-30T08:15:24;15.60;;;11.10;;
60722;SDS011;46574;52.818;6.516;2023-09-30T08:17:50;13.90;;;10.05;;
60722;SDS011;46574;52.818;6.516;2023-09-30T08:20:15;13.07;;;9.38;;
60722;SDS011;46574;52.818;6.516;2023-09-30T08:22:41;12.75;;;9.40;;
60722;SDS011;46574;52.818;6.516;2023-09-30T08:25:08;13.45;;;10.52;;
60722;SDS011;46574;52.818;6.516;2023-09-30T08:27:34;16.55;;;11.27;;
60722;SDS011;46574;52.818;6.516;2023-09-30T08:30:01;12.98;;;8.88;;
60722;SDS011;46574;52.818;6.516;2023-09-30T08:32:32;14.38;;;9.82;;
60722;SDS011;46574;52.818;6.516;2023-09-30T08:34:58;16.40;;;9.65;;
60722;SDS011;46574;52.818;6.516;2023-09-30T08:37:24;15.90;;;9.75;;
60722;SDS011;46574;52.818;6.516;2023-09-30T08:39:49;13.68;;;9.73;;
60722;SDS011;46574;52.818;6.516;2023-09-30T08:42:15;17.77;;;9.60;;
60722;SDS011;46574;52.818;6.516;2023-09-30T08:44:45;14.27;;;9.90;;
60722;SDS011;46574;52.818;6.516;2023-09-30T08:47:11;19.50;;;10.70;;
60722;SDS011;46574;52.818;6.516;2023-09-30T08:49:37;13.90;;;9.57;;
60722;SDS011;46574;52.818;6.516;2023-09-30T08:54:34;12.32;;;9.40;;
60722;SDS011;46574;52.818;6.516;2023-09-30T08:57:00;10.82;;;8.13;;
60722;SDS011;46574;52.818;6.516;2023-09-30T08:59:29;13.65;;;8.70;;
60722;SDS011;46574;52.818;6.516;2023-09-30T09:01:57;13.27;;;8.48;;
60722;SDS011;46574;52.818;6.516;2023-09-30T09:04:23;13.43;;;8.73;;
60722;SDS011;46574;52.818;6.516;2023-09-30T09:06:50;11.85;;;8.65;;
60722;SDS011;46574;52.818;6.516;2023-09-30T09:09:15;13.73;;;8.43;;
60722;SDS011;46574;52.818;6.516;2023-09-30T09:11:42;12.27;;;8.40;;
60722;SDS011;46574;52.818;6.516;2023-09-30T09:14:11;12.07;;;8.15;;
60722;SDS011;46574;52.818;6.516;2023-09-30T09:16:49;12.32;;;7.68;;
60722;SDS011;46574;52.818;6.516;2023-09-30T09:19:19;12.52;;;8.45;;
60722;SDS011;46574;52.818;6.516;2023-09-30T09:22:07;13.38;;;8.73;;
60722;SDS011;46574;52.818;6.516;2023-09-30T09:24:33;13.57;;;8.68;;
60722;SDS011;46574;52.818;6.516;2023-09-30T09:27:18;13.10;;;8.60;;
60722;SDS011;46574;52.818;6.516;2023-09-30T09:29:47;13.13;;;8.52;;
60722;SDS011;46574;52.818;6.516;2023-09-30T09:32:14;12.40;;;7.78;;
60722;SDS011;46574;52.818;6.516;2023-09-30T09:34:42;13.88;;;9.15;;
60722;SDS011;46574;52.818;6.516;2023-09-30T09:37:16;14.60;;;7.75;;
60722;SDS011;46574;52.818;6.516;2023-09-30T09:39:52;12.05;;;7.32;;
60722;SDS011;46574;52.818;6.516;2023-09-30T09:42:32;14.32;;;9.02;;
60722;SDS011;46574;52.818;6.516;2023-09-30T09:44:59;10.82;;;8.23;;
60722;SDS011;46574;52.818;6.516;2023-09-30T09:47:27;11.70;;;7.20;;
60722;SDS011;46574;52.818;6.516;2023-09-30T09:49:55;11.37;;;7.70;;
60722;SDS011;46574;52.818;6.516;2023-09-30T09:52:22;13.13;;;7.15;;
60722;SDS011;46574;52.818;6.516;2023-09-30T09:54:49;12.45;;;7.40;;
60722;SDS011;46574;52.818;6.516;2023-09-30T09:57:16;11.50;;;7.10;;
60722;SDS011;46574;52.818;6.516;2023-09-30T09:59:44;11.85;;;6.82;;
60722;SDS011;46574;52.818;6.516;2023-09-30T10:02:14;12.90;;;7.38;;
60722;SDS011;46574;52.818;6.516;2023-09-30T10:04:44;12.23;;;6.90;;
60722;SDS011;46574;52.818;6.516;2023-09-30T10:07:22;11.57;;;7.13;;
60722;SDS011;46574;52.818;6.516;2023-09-30T10:09:54;10.90;;;7.45;;
60722;SDS011;46574;52.818;6.516;2023-09-30T10:12:24;10.32;;;5.80;;
60722;SDS011;46574;52.818;6.516;2023-09-30T10:14:51;9.52;;;6.40;;
60722;SDS011;46574;52.818;6.516;2023-09-30T10:17:17;8.23;;;5.68;;
60722;SDS011;46574;52.818;6.516;2023-09-30T10:22:38;10.10;;;5.00;;
60722;SDS011;46574;52.818;6.516;2023-09-30T10:25:32;8.90;;;4.93;;
60722;SDS011;46574;52.818;6.516;2023-09-30T10:27:59;7.38;;;4.85;;
60722;SDS011;46574;52.818;6.516;2023-09-30T10:34:02;9.63;;;5.05;;
60722;SDS011;46574;52.818;6.516;2023-09-30T10:36:29;8.63;;;3.90;;
60722;SDS011;46574;52.818;6.516;2023-09-30T10:38:59;7.93;;;4.90;;
60722;SDS011;46574;52.818;6.516;2023-09-30T10:46:47;7.40;;;3.97;;
60722;SDS011;46574;52.818;6.516;2023-09-30T10:51:52;7.05;;;3.60;;
60722;SDS011;46574;52.818;6.516;2023-09-30T10:54:22;9.02;;;3.92;;
60722;SDS011;46574;52.818;6.516;2023-09-30T10:56:49;6.93;;;2.90;;
60722;SDS011;46574;52.818;6.516;2023-09-30T10:59:22;7.45;;;2.88;;
60722;SDS011;46574;52.818;6.516;2023-09-30T11:01:48;8.93;;;3.10;;
60722;SDS011;46574;52.818;6.516;2023-09-30T11:04:15;6.60;;;3.15;;
60722;SDS011;46574;52.818;6.516;2023-09-30T11:06:42;9.65;;;3.97;;
60722;SDS011;46574;52.818;6.516;2023-09-30T11:09:16;7.25;;;2.80;;
60722;SDS011;46574;52.818;6.516;2023-09-30T11:11:43;6.78;;;2.90;;
60722;SDS011;46574;52.818;6.516;2023-09-30T11:14:19;5.13;;;2.78;;
60722;SDS011;46574;52.818;6.516;2023-09-30T11:16:50;3.22;;;1.95;;
60722;SDS011;46574;52.818;6.516;2023-09-30T11:19:17;5.18;;;1.67;;
60722;SDS011;46574;52.818;6.516;2023-09-30T11:21:50;4.93;;;1.70;;
60722;SDS011;46574;52.818;6.516;2023-09-30T11:24:17;5.47;;;2.13;;
60722;SDS011;46574;52.818;6.516;2023-09-30T11:26:47;5.28;;;2.28;;
60722;SDS011;46574;52.818;6.516;2023-09-30T11:29:14;4.05;;;1.80;;
60722;SDS011;46574;52.818;6.516;2023-09-30T11:31:45;7.97;;;1.98;;
60722;SDS011;46574;52.818;6.516;2023-09-30T11:34:13;6.90;;;2.50;;
60722;SDS011;46574;52.818;6.516;2023-09-30T11:36:41;4.97;;;2.25;;
60722;SDS011;46574;52.818;6.516;2023-09-30T11:39:27;5.25;;;2.00;;
60722;SDS011;46574;52.818;6.516;2023-09-30T11:41:54;3.90;;;1.63;;
60722;SDS011;46574;52.818;6.516;2023-09-30T11:44:22;4.70;;;1.85;;
60722;SDS011;46574;52.818;6.516;2023-09-30T11:46:52;5.22;;;1.70;;
60722;SDS011;46574;52.818;6.516;2023-09-30T11:49:27;4.78;;;2.00;;
60722;SDS011;46574;52.818;6.516;2023-09-30T11:51:55;5.22;;;1.35;;
60722;SDS011;46574;52.818;6.516;2023-09-30T11:54:27;5.13;;;1.38;;
60722;SDS011;46574;52.818;6.516;2023-09-30T11:57:14;4.05;;;1.40;;
60722;SDS011;46574;52.818;6.516;2023-09-30T11:59:41;5.10;;;1.65;;
60722;SDS011;46574;52.818;6.516;2023-09-30T12:02:08;5.43;;;1.60;;
60722;SDS011;46574;52.818;6.516;2023-09-30T12:04:34;4.32;;;1.40;;
60722;SDS011;46574;52.818;6.516;2023-09-30T12:07:01;5.75;;;1.50;;
60722;SDS011;46574;52.818;6.516;2023-09-30T12:09:27;5.78;;;1.17;;
60722;SDS011;46574;52.818;6.516;2023-09-30T12:11:53;4.43;;;1.73;;
60722;SDS011;46574;52.818;6.516;2023-09-30T12:14:20;5.50;;;1.98;;
60722;SDS011;46574;52.818;6.516;2023-09-30T12:16:47;5.30;;;1.50;;
60722;SDS011;46574;52.818;6.516;2023-09-30T12:19:13;4.45;;;1.70;;
60722;SDS011;46574;52.818;6.516;2023-09-30T12:21:40;4.32;;;1.40;;
60722;SDS011;46574;52.818;6.516;2023-09-30T12:24:06;4.88;;;1.55;;
60722;SDS011;46574;52.818;6.516;2023-09-30T12:26:34;5.75;;;1.70;;
60722;SDS011;46574;52.818;6.516;2023-09-30T12:29:03;5.63;;;1.52;;
60722;SDS011;46574;52.818;6.516;2023-09-30T12:31:30;3.47;;;1.50;;
60722;SDS011;46574;52.818;6.516;2023-09-30T12:33:56;3.83;;;1.15;;
60722;SDS011;46574;52.818;6.516;2023-09-30T12:36:22;3.33;;;1.40;;
60722;SDS011;46574;52.818;6.516;2023-09-30T12:38:49;4.65;;;1.35;;
60722;SDS011;46574;52.818;6.516;2023-09-30T12:41:15;4.65;;;1.38;;
60722;SDS011;46574;52.818;6.516;2023-09-30T12:43:40;4.75;;;1.40;;
60722;SDS011;46574;52.818;6.516;2023-09-30T12:46:08;4.03;;;1.33;;
60722;SDS011;46574;52.818;6.516;2023-09-30T12:48:34;5.72;;;1.60;;
60722;SDS011;46574;52.818;6.516;2023-09-30T12:51:00;2.80;;;1.35;;
60722;SDS011;46574;52.818;6.516;2023-09-30T12:53:25;3.63;;;1.45;;
60722;SDS011;46574;52.818;6.516;2023-09-30T12:55:51;3.80;;;1.38;;
60722;SDS011;46574;52.818;6.516;2023-09-30T12:58:17;5.38;;;1.58;;
60722;SDS011;46574;52.818;6.516;2023-09-30T13:00:42;4.68;;;1.63;;
60722;SDS011;46574;52.818;6.516;2023-09-30T13:03:09;5.75;;;2.03;;
60722;SDS011;46574;52.818;6.516;2023-09-30T13:05:35;4.65;;;1.30;;
60722;SDS011;46574;52.818;6.516;2023-09-30T13:08:00;5.40;;;1.25;;
60722;SDS011;46574;52.818;6.516;2023-09-30T13:10:26;4.05;;;1.38;;
60722;SDS011;46574;52.818;6.516;2023-09-30T13:12:54;3.70;;;1.50;;
60722;SDS011;46574;52.818;6.516;2023-09-30T13:15:20;4.22;;;1.60;;
60722;SDS011;46574;52.818;6.516;2023-09-30T13:17:46;4.53;;;1.50;;
60722;SDS011;46574;52.818;6.516;2023-09-30T13:20:12;4.15;;;1.20;;
60722;SDS011;46574;52.818;6.516;2023-09-30T13:22:38;6.50;;;1.60;;
60722;SDS011;46574;52.818;6.516;2023-09-30T13:25:07;4.20;;;1.45;;
60722;SDS011;46574;52.818;6.516;2023-09-30T13:27:33;2.83;;;1.40;;
60722;SDS011;46574;52.818;6.516;2023-09-30T13:29:59;3.85;;;1.45;;
60722;SDS011;46574;52.818;6.516;2023-09-30T13:32:26;3.50;;;1.60;;
60722;SDS011;46574;52.818;6.516;2023-09-30T13:34:52;5.15;;;1.50;;
60722;SDS011;46574;52.818;6.516;2023-09-30T13:37:18;4.93;;;1.50;;
60722;SDS011;46574;52.818;6.516;2023-09-30T13:39:43;5.97;;;1.60;;
60722;SDS011;46574;52.818;6.516;2023-09-30T13:42:09;2.92;;;1.60;;
60722;SDS011;46574;52.818;6.516;2023-09-30T13:44:35;6.22;;;1.70;;
60722;SDS011;46574;52.818;6.516;2023-09-30T13:47:01;3.53;;;1.55;;
60722;SDS011;46574;52.818;6.516;2023-09-30T13:49:28;5.53;;;1.60;;
60722;SDS011;46574;52.818;6.516;2023-09-30T13:51:55;4.00;;;1.77;;
60722;SDS011;46574;52.818;6.516;2023-09-30T13:54:20;4.00;;;1.73;;
60722;SDS011;46574;52.818;6.516;2023-09-30T13:56:46;4.68;;;1.60;;
60722;SDS011;46574;52.818;6.516;2023-09-30T13:59:12;3.15;;;1.40;;
60722;SDS011;46574;52.818;6.516;2023-09-30T14:01:37;3.38;;;1.38;;
60722;SDS011;46574;52.818;6.516;2023-09-30T14:04:06;4.97;;;1.88;;
60722;SDS011;46574;52.818;6.516;2023-09-30T14:06:32;3.42;;;1.50;;
60722;SDS011;46574;52.818;6.516;2023-09-30T14:08:58;5.45;;;1.75;;
60722;SDS011;46574;52.818;6.516;2023-09-30T14:11:23;4.18;;;1.80;;
60722;SDS011;46574;52.818;6.516;2023-09-30T14:13:49;3.40;;;1.50;;
60722;SDS011;46574;52.818;6.516;2023-09-30T14:16:15;3.65;;;1.48;;
60722;SDS011;46574;52.818;6.516;2023-09-30T14:18:40;3.85;;;1.55;;
60722;SDS011;46574;52.818;6.516;2023-09-30T14:21:07;4.82;;;1.60;;
60722;SDS011;46574;52.818;6.516;2023-09-30T14:23:33;6.95;;;1.90;;
60722;SDS011;46574;52.818;6.516;2023-09-30T14:25:59;3.70;;;1.50;;
60722;SDS011;46574;52.818;6.516;2023-09-30T14:28:25;4.32;;;1.58;;
60722;SDS011;46574;52.818;6.516;2023-09-30T14:30:51;4.00;;;1.40;;
60722;SDS011;46574;52.818;6.516;2023-09-30T14:33:18;4.53;;;1.45;;
60722;SDS011;46574;52.818;6.516;2023-09-30T14:35:47;2.47;;;1.23;;
60722;SDS011;46574;52.818;6.516;2023-09-30T14:38:13;4.45;;;1.33;;
60722;SDS011;46574;52.818;6.516;2023-09-30T14:40:39;4.28;;;1.58;;
60722;SDS011;46574;52.818;6.516;2023-09-30T14:43:09;6.20;;;1.90;;
60722;SDS011;46574;52.818;6.516;2023-09-30T14:45:38;3.92;;;2.05;;
60722;SDS011;46574;52.818;6.516;2023-09-30T14:48:05;5.03;;;1.73;;
60722;SDS011;46574;52.818;6.516;2023-09-30T14:50:31;3.78;;;1.65;;
60722;SDS011;46574;52.818;6.516;2023-09-30T14:52:58;5.50;;;1.58;;
60722;SDS011;46574;52.818;6.516;2023-09-30T14:55:23;4.95;;;1.75;;
60722;SDS011;46574;52.818;6.516;2023-09-30T14:57:49;3.40;;;1.88;;
60722;SDS011;46574;52.818;6.516;2023-09-30T15:00:15;5.28;;;1.85;;
60722;SDS011;46574;52.818;6.516;2023-09-30T15:02:42;4.90;;;1.90;;
60722;SDS011;46574;52.818;6.516;2023-09-30T15:05:07;5.10;;;1.70;;
60722;SDS011;46574;52.818;6.516;2023-09-30T15:07:34;5.93;;;1.65;;